createdAt,value
2022-07-30T00:02:09.927Z,23.10
2022-07-30T00:04:37.304Z,23.10
2022-07-30T00:07:04.716Z,23.10
2022-07-30T00:09:34.288Z,23.10
2022-07-30T00:12:01.912Z,23.10
2022-07-30T00:14:30.716Z,23.10
2022-07-30T00:16:58.528Z,23.10
2022-07-30T00:19:26.087Z,23.10
2022-07-30T00:22:19.776Z,23.10
2022-07-30T00:24:47.070Z,23.10
2022-07-30T00:27:14.572Z,23.10
2022-07-30T00:29:54.231Z,23.10
2022-07-30T00:32:21.849Z,23.10
2022-07-30T00:34:49.192Z,23.10
2022-07-30T00:37:25.902Z,23.20
2022-07-30T00:39:53.468Z,23.10
2022-07-30T00:42:25.698Z,23.10
2022-07-30T00:44:53.255Z,23.10
2022-07-30T00:47:21.265Z,23.00
2022-07-30T00:49:48.612Z,22.90
2022-07-30T00:52:16.721Z,22.80
2022-07-30T00:54:44.012Z,22.70
2022-07-30T00:57:11.342Z,22.70
2022-07-30T00:59:38.639Z,22.90
2022-07-30T01:02:06.145Z,22.90
2022-07-30T01:04:33.397Z,22.70
2022-07-30T01:07:00.987Z,22.60
2022-07-30T01:09:28.579Z,22.60
2022-07-30T01:11:56.622Z,22.60
2022-07-30T01:14:25.132Z,22.70
2022-07-30T01:16:52.521Z,22.70
2022-07-30T01:19:49.107Z,22.70
2022-07-30T01:22:23.952Z,22.80
2022-07-30T01:25:03.901Z,22.80
2022-07-30T01:27:36.558Z,22.70
2022-07-30T01:30:06.020Z,22.70
2022-07-30T01:32:36.655Z,22.70
2022-07-30T01:35:06.611Z,22.70
2022-07-30T01:37:34.926Z,22.60
2022-07-30T01:40:03.930Z,22.60
2022-07-30T01:42:32.680Z,22.50
2022-07-30T01:45:01.977Z,22.40
2022-07-30T01:47:31.200Z,22.30
2022-07-30T01:50:01.753Z,22.40
2022-07-30T01:52:31.150Z,22.30
2022-07-30T01:55:00.658Z,22.40
2022-07-30T01:57:29.983Z,22.40
2022-07-30T02:00:05.412Z,22.40
2022-07-30T02:02:44.787Z,22.40
2022-07-30T02:05:12.872Z,22.30
2022-07-30T02:07:42.242Z,21.80
2022-07-30T02:10:29.889Z,21.70
2022-07-30T02:13:15.160Z,21.80
2022-07-30T02:15:48.763Z,21.80
2022-07-30T02:18:41.558Z,21.80
2022-07-30T02:21:11.492Z,21.90
2022-07-30T02:23:48.567Z,22.10
2022-07-30T02:26:21.596Z,22.10
2022-07-30T02:28:54.083Z,22.10
2022-07-30T02:31:25.079Z,21.90
2022-07-30T02:33:58.705Z,21.80
2022-07-30T02:36:28.648Z,21.70
2022-07-30T02:38:56.880Z,21.70
2022-07-30T02:41:27.078Z,21.80
2022-07-30T02:43:56.953Z,21.80
2022-07-30T02:46:25.616Z,21.70
2022-07-30T02:49:15.142Z,21.70
2022-07-30T02:51:43.493Z,21.70
2022-07-30T02:54:12.782Z,21.70
2022-07-30T02:56:42.494Z,21.70
2022-07-30T02:59:11.520Z,21.60
2022-07-30T03:01:39.393Z,21.50
2022-07-30T03:04:08.584Z,21.50
2022-07-30T03:06:37.046Z,21.60
2022-07-30T03:09:05.527Z,21.60
2022-07-30T03:11:35.024Z,21.60
2022-07-30T03:14:03.333Z,21.60
2022-07-30T03:16:34.304Z,21.60
2022-07-30T03:19:05.175Z,21.50
2022-07-30T03:21:35.743Z,21.50
2022-07-30T03:24:06.551Z,21.50
2022-07-30T03:26:34.948Z,21.60
2022-07-30T03:29:04.777Z,21.60
2022-07-30T03:31:36.385Z,21.60
2022-07-30T03:34:09.869Z,21.60
2022-07-30T03:36:43.233Z,21.60
2022-07-30T03:39:11.498Z,21.70
2022-07-30T03:41:40.357Z,21.60
2022-07-30T03:44:14.883Z,21.50
2022-07-30T03:46:43.187Z,21.50
2022-07-30T03:49:12.260Z,21.40
2022-07-30T03:54:38.085Z,21.30
2022-07-30T03:57:44.193Z,21.30
2022-07-30T04:00:15.700Z,21.30
2022-07-30T04:02:49.006Z,21.30
2022-07-30T04:05:41.672Z,21.20
2022-07-30T04:08:11.467Z,21.30
2022-07-30T04:10:45.691Z,21.30
2022-07-30T04:13:31.348Z,21.40
2022-07-30T04:16:35.519Z,21.40
2022-07-30T04:18:51.342Z,21.30
2022-07-30T04:21:20.691Z,21.40
2022-07-30T04:24:03.113Z,21.40
2022-07-30T04:26:36.476Z,21.20
2022-07-30T04:29:07.969Z,21.30
2022-07-30T04:31:40.299Z,21.40
2022-07-30T04:34:27.356Z,21.50
2022-07-30T04:36:55.077Z,21.50
2022-07-30T04:39:22.397Z,21.50
2022-07-30T04:41:50.360Z,21.60
2022-07-30T04:44:31.389Z,21.60
2022-07-30T04:47:22.794Z,21.70
2022-07-30T04:50:22.816Z,21.80
2022-07-30T04:52:52.346Z,21.80
2022-07-30T04:55:27.016Z,21.90
2022-07-30T04:58:21.609Z,21.90
2022-07-30T05:00:50.152Z,22.00
2022-07-30T05:03:23.234Z,21.90
2022-07-30T05:05:57.613Z,21.90
2022-07-30T05:08:27.156Z,22.00
2022-07-30T05:10:55.356Z,22.10
2022-07-30T05:13:23.114Z,22.10
2022-07-30T05:16:03.577Z,22.10
2022-07-30T05:18:31.071Z,22.20
2022-07-30T05:20:58.667Z,22.30
2022-07-30T05:23:50.186Z,22.20
2022-07-30T05:26:53.657Z,22.10
2022-07-30T05:29:22.170Z,22.10
2022-07-30T05:31:54.966Z,22.10
2022-07-30T05:34:30.103Z,22.10
2022-07-30T05:36:57.604Z,22.20
2022-07-30T05:39:25.245Z,22.20
2022-07-30T05:41:52.677Z,22.30
2022-07-30T05:44:40.190Z,22.30
2022-07-30T05:47:07.554Z,22.40
2022-07-30T05:49:35.152Z,22.40
2022-07-30T05:52:08.549Z,22.50
2022-07-30T05:54:35.932Z,22.50
2022-07-30T05:57:12.234Z,22.70
2022-07-30T05:59:40.818Z,22.90
2022-07-30T06:02:10.123Z,23.30
2022-07-30T06:04:53.197Z,23.70
2022-07-30T06:07:20.889Z,24.30
2022-07-30T06:09:49.318Z,24.90
2022-07-30T06:12:16.778Z,25.30
2022-07-30T06:14:44.122Z,25.80
2022-07-30T06:17:16.395Z,26.30
2022-07-30T06:20:02.421Z,26.90
2022-07-30T06:22:34.033Z,27.30
2022-07-30T06:25:08.883Z,27.60
2022-07-30T06:27:39.719Z,27.80
2022-07-30T06:30:09.879Z,28.00
2022-07-30T06:32:37.664Z,28.30
2022-07-30T06:35:06.657Z,28.50
2022-07-30T06:38:05.915Z,28.70
2022-07-30T06:40:24.305Z,28.70
2022-07-30T06:43:12.489Z,28.90
2022-07-30T06:45:52.626Z,29.20
2022-07-30T06:48:25.352Z,29.30
2022-07-30T06:50:54.040Z,29.20
2022-07-30T06:53:21.658Z,29.20
2022-07-30T06:56:13.071Z,29.50
2022-07-30T06:58:47.613Z,29.60
2022-07-30T07:01:23.469Z,29.70
2022-07-30T07:03:51.295Z,29.80
2022-07-30T07:06:19.577Z,30.10
2022-07-30T07:08:46.967Z,30.20
2022-07-30T07:11:18.140Z,30.20
2022-07-30T07:13:54.246Z,30.60
2022-07-30T07:16:41.898Z,30.70
2022-07-30T07:20:01.182Z,30.70
2022-07-30T07:22:15.558Z,30.40
2022-07-30T07:24:45.575Z,30.30
2022-07-30T07:27:18.032Z,30.00
2022-07-30T07:30:00.971Z,29.70
2022-07-30T07:32:36.621Z,29.90
2022-07-30T07:35:05.365Z,29.80
2022-07-30T07:37:35.042Z,29.90
2022-07-30T07:40:06.163Z,30.00
2022-07-30T07:42:48.412Z,29.40
2022-07-30T07:45:21.833Z,29.10
2022-07-30T07:47:55.617Z,29.10
2022-07-30T07:50:59.912Z,29.20
2022-07-30T07:53:30.391Z,29.40
2022-07-30T07:55:59.614Z,29.10
2022-07-30T07:58:27.540Z,29.10
2022-07-30T08:00:59.639Z,29.20
2022-07-30T08:03:51.254Z,29.40
2022-07-30T08:06:37.422Z,29.70
2022-07-30T08:09:49.854Z,30.00
2022-07-30T08:12:27.361Z,29.60
2022-07-30T08:15:42.441Z,29.20
2022-07-30T08:18:32.273Z,29.10
2022-07-30T08:21:22.564Z,28.80
2022-07-30T08:23:52.904Z,29.40
2022-07-30T08:26:20.591Z,29.10
2022-07-30T08:28:51.104Z,29.00
2022-07-30T08:31:47.199Z,28.90
2022-07-30T08:34:15.077Z,28.70
2022-07-30T08:36:55.373Z,28.80
2022-07-30T08:39:24.096Z,29.20
2022-07-30T08:41:57.403Z,29.60
2022-07-30T08:44:28.273Z,29.90
2022-07-30T08:46:59.342Z,29.90
2022-07-30T08:49:48.992Z,29.80
2022-07-30T08:56:54.848Z,29.90
2022-07-30T08:59:52.832Z,30.20
2022-07-30T09:02:13.387Z,30.20
2022-07-30T09:04:57.461Z,30.20
2022-07-30T09:08:03.271Z,30.20
2022-07-30T09:25:00.516Z,32.40
2022-07-30T09:27:50.097Z,31.40
2022-07-30T09:30:49.006Z,31.80
2022-07-30T09:33:48.343Z,32.40
2022-07-30T09:36:36.482Z,32.70
2022-07-30T09:43:07.310Z,33.10
2022-07-30T09:46:17.285Z,32.70
2022-07-30T09:48:46.938Z,32.50
2022-07-30T09:54:40.279Z,32.60
2022-07-30T09:57:30.391Z,32.30
2022-07-30T10:00:39.450Z,32.50
2022-07-30T10:03:38.396Z,32.90
2022-07-30T10:06:56.371Z,33.30
2022-07-30T10:09:42.626Z,33.50
2022-07-30T10:12:14.410Z,33.10
2022-07-30T10:14:49.660Z,33.40
2022-07-30T10:17:20.669Z,33.60
2022-07-30T10:20:12.434Z,33.30
2022-07-30T10:23:08.772Z,33.30
2022-07-30T10:26:03.779Z,33.10
2022-07-30T10:29:03.913Z,32.80
2022-07-30T10:31:48.942Z,32.50
2022-07-30T10:34:23.528Z,32.40
2022-07-30T10:37:14.975Z,32.10
2022-07-30T10:39:53.530Z,31.90
2022-07-30T10:42:40.041Z,31.80
2022-07-30T10:45:49.515Z,31.80
2022-07-30T10:48:19.635Z,32.10
2022-07-30T10:50:55.474Z,32.40
2022-07-30T10:53:41.129Z,32.50
2022-07-30T10:56:15.152Z,32.50
2022-07-30T10:59:07.880Z,32.30
2022-07-30T11:02:00.543Z,32.20
2022-07-30T11:04:48.551Z,32.10
2022-07-30T11:07:22.246Z,32.00
2022-07-30T11:10:05.951Z,31.90
2022-07-30T11:12:44.035Z,31.80
2022-07-30T11:15:18.486Z,31.90
2022-07-30T11:18:02.895Z,31.60
2022-07-30T11:20:33.118Z,31.30
2022-07-30T11:23:19.232Z,31.40
2022-07-30T11:25:50.722Z,31.50
2022-07-30T11:28:39.692Z,31.60
2022-07-30T11:31:37.126Z,31.80
2022-07-30T11:34:26.208Z,31.80
2022-07-30T11:37:19.075Z,31.70
2022-07-30T11:40:02.174Z,31.80
2022-07-30T11:42:35.405Z,32.00
2022-07-30T11:45:25.695Z,32.10
2022-07-30T11:47:59.925Z,32.00
2022-07-30T11:50:34.066Z,31.90
2022-07-30T11:53:05.527Z,32.00
2022-07-30T11:55:53.264Z,32.20
2022-07-30T11:58:35.649Z,32.10
2022-07-30T12:01:14.450Z,32.00
2022-07-30T12:03:48.270Z,32.20
2022-07-30T12:06:20.255Z,32.10
2022-07-30T12:11:45.011Z,32.30
2022-07-30T12:14:14.149Z,32.20
2022-07-30T12:16:53.333Z,32.10
2022-07-30T12:19:20.873Z,32.00
2022-07-30T12:21:52.986Z,32.00
2022-07-30T12:24:26.909Z,32.10
2022-07-30T12:30:30.227Z,32.10
2022-07-30T12:32:58.010Z,32.20
2022-07-30T12:35:43.234Z,32.30
2022-07-30T12:38:10.941Z,31.90
2022-07-30T12:41:11.055Z,32.00
2022-07-30T12:44:01.470Z,32.10
2022-07-30T12:46:29.159Z,32.20
2022-07-30T12:49:50.566Z,32.10
2022-07-30T12:52:39.199Z,32.10
2022-07-30T12:55:15.910Z,32.10
2022-07-30T12:58:08.330Z,32.10
2022-07-30T13:00:44.249Z,32.00
2022-07-30T13:03:46.936Z,32.10
2022-07-30T13:06:19.902Z,32.10
2022-07-30T13:09:07.405Z,32.30
2022-07-30T13:12:15.470Z,32.40
2022-07-30T13:17:53.278Z,32.30
2022-07-30T13:20:21.136Z,32.30
2022-07-30T13:22:48.497Z,32.40
2022-07-30T13:25:15.840Z,32.50
2022-07-30T13:27:43.436Z,32.60
2022-07-30T13:30:11.163Z,32.70
2022-07-30T13:32:38.546Z,32.70
2022-07-30T13:35:06.449Z,32.70
2022-07-30T13:37:37.878Z,32.50
2022-07-30T13:40:15.615Z,32.50
2022-07-30T13:42:44.706Z,32.60
2022-07-30T13:45:12.046Z,32.60
2022-07-30T13:47:40.408Z,32.80
2022-07-30T13:50:08.597Z,32.90
2022-07-30T13:52:36.171Z,32.80
2022-07-30T13:55:03.686Z,32.60
2022-07-30T13:57:31.024Z,32.60
2022-07-30T13:59:58.454Z,32.70
2022-07-30T14:02:26.072Z,32.60
2022-07-30T14:04:55.573Z,32.50
2022-07-30T14:07:22.903Z,32.40
2022-07-30T14:09:54.697Z,32.40
2022-07-30T14:12:24.904Z,32.30
2022-07-30T14:14:54.895Z,32.30
2022-07-30T14:17:25.220Z,32.40
2022-07-30T14:19:54.416Z,32.40
2022-07-30T14:22:22.037Z,32.60
2022-07-30T14:24:49.755Z,32.60
2022-07-30T14:27:20.371Z,32.70
2022-07-30T14:29:51.116Z,32.60
2022-07-30T14:35:47.801Z,32.60
2022-07-30T14:38:49.023Z,32.70
2022-07-30T14:41:19.886Z,32.70
2022-07-30T14:43:47.664Z,32.80
2022-07-30T14:46:15.622Z,32.70
2022-07-30T14:48:43.426Z,32.60
2022-07-30T14:51:16.275Z,32.60
2022-07-30T14:53:47.235Z,32.60
2022-07-30T14:56:14.802Z,32.50
2022-07-30T14:58:45.745Z,32.60
2022-07-30T15:01:16.634Z,32.60
2022-07-30T15:03:47.489Z,32.40
2022-07-30T15:06:17.667Z,32.50
2022-07-30T15:08:46.001Z,32.40
2022-07-30T15:11:13.612Z,32.40
2022-07-30T15:13:49.771Z,32.40
2022-07-30T15:16:19.417Z,32.40
2022-07-30T15:18:46.969Z,32.40
2022-07-30T15:21:18.169Z,32.40
2022-07-30T15:23:45.479Z,32.50
2022-07-30T15:26:15.588Z,32.50
2022-07-30T15:28:42.963Z,32.40
2022-07-30T15:31:13.957Z,32.40
2022-07-30T15:33:45.992Z,32.40
2022-07-30T15:36:13.337Z,32.30
2022-07-30T15:38:43.681Z,32.20
2022-07-30T15:41:14.090Z,32.20
2022-07-30T15:43:41.614Z,32.20
2022-07-30T15:46:12.183Z,32.20
2022-07-30T15:48:39.540Z,32.30
2022-07-30T15:51:06.904Z,32.20
2022-07-30T15:53:37.557Z,32.10
2022-07-30T15:56:33.304Z,32.10
2022-07-30T16:02:26.830Z,32.10
2022-07-30T16:08:09.614Z,32.10
2022-07-30T16:10:51.983Z,32.10
2022-07-30T16:13:19.616Z,32.10
2022-07-30T16:15:59.161Z,32.10
2022-07-30T16:18:29.233Z,32.00
2022-07-30T16:21:14.404Z,32.00
2022-07-30T16:24:10.480Z,32.00
2022-07-30T16:27:51.626Z,32.00
2022-07-30T16:30:19.374Z,32.00
2022-07-30T16:32:51.813Z,31.90
2022-07-30T16:35:32.775Z,31.90
2022-07-30T16:38:03.933Z,31.90
2022-07-30T16:43:47.290Z,31.90
2022-07-30T16:46:16.721Z,31.90
2022-07-30T16:49:12.871Z,31.90
2022-07-30T16:51:40.900Z,31.80
2022-07-30T16:54:09.961Z,31.80
2022-07-30T16:57:16.821Z,31.90
2022-07-30T16:59:48.501Z,31.80
2022-07-30T17:02:23.436Z,31.80
2022-07-30T17:04:52.830Z,31.80
2022-07-30T17:07:20.216Z,31.80
2022-07-30T17:09:52.458Z,31.80
2022-07-30T17:12:25.272Z,31.70
2022-07-30T17:15:02.165Z,31.70
2022-07-30T17:21:05.630Z,31.60
2022-07-30T17:23:35.968Z,31.50
2022-07-30T17:26:03.646Z,31.50
2022-07-30T17:28:31.012Z,31.50
2022-07-30T17:30:58.457Z,31.50
2022-07-30T17:33:59.646Z,31.50
2022-07-30T17:36:52.285Z,31.40
2022-07-30T17:40:26.855Z,31.20
2022-07-30T17:45:42.029Z,31.20
2022-07-30T17:48:09.484Z,31.10
2022-07-30T17:50:37.321Z,31.10
2022-07-30T17:55:57.379Z,30.90
2022-07-30T17:58:25.899Z,30.80
2022-07-30T18:00:53.243Z,30.80
2022-07-30T18:03:20.693Z,30.80
2022-07-30T18:05:48.049Z,30.70
2022-07-30T18:08:15.342Z,30.60
2022-07-30T18:10:43.038Z,30.60
2022-07-30T18:13:26.124Z,30.60
2022-07-30T18:15:54.985Z,30.50
2022-07-30T18:18:22.407Z,30.50
2022-07-30T18:20:50.441Z,30.40
2022-07-30T18:23:19.262Z,30.40
2022-07-30T18:25:51.960Z,30.30
2022-07-30T18:28:20.716Z,30.30
2022-07-30T18:30:48.466Z,30.30
2022-07-30T18:33:16.191Z,30.20
2022-07-30T18:35:43.992Z,30.10
2022-07-30T18:38:11.272Z,30.00
2022-07-30T18:40:38.748Z,30.00
2022-07-30T18:43:09.173Z,30.00
2022-07-30T18:45:37.240Z,29.90
2022-07-30T18:48:05.063Z,29.90
2022-07-30T18:50:32.909Z,29.90
2022-07-30T18:53:00.280Z,29.80
2022-07-30T18:55:27.604Z,29.80
2022-07-30T18:57:55.344Z,29.80
2022-07-30T19:00:34.775Z,29.70
2022-07-30T19:03:03.364Z,29.70
2022-07-30T19:05:30.920Z,29.60
2022-07-30T19:07:59.071Z,29.50
2022-07-30T19:10:27.448Z,29.50
2022-07-30T19:12:55.854Z,29.50
2022-07-30T19:15:23.379Z,29.50
2022-07-30T19:17:51.583Z,29.40
2022-07-30T19:20:20.114Z,29.30
2022-07-30T19:22:47.381Z,29.30
2022-07-30T19:25:14.743Z,29.30
2022-07-30T19:27:42.074Z,29.10
2022-07-30T19:30:09.825Z,28.70
2022-07-30T19:32:37.220Z,28.60
2022-07-30T19:35:05.232Z,28.40
2022-07-30T19:37:37.973Z,28.40
2022-07-30T19:40:08.517Z,28.30
2022-07-30T19:42:37.096Z,28.20
2022-07-30T19:45:11.366Z,28.10
2022-07-30T19:47:42.357Z,28.20
2022-07-30T19:50:11.126Z,28.10
2022-07-30T19:52:40.091Z,28.00
2022-07-30T19:55:35.093Z,27.90
2022-07-30T19:58:16.025Z,27.80
2022-07-30T20:00:49.696Z,27.70
2022-07-30T20:03:19.057Z,27.60
2022-07-30T20:05:54.952Z,27.50
2022-07-30T20:08:27.308Z,27.50
2022-07-30T20:10:57.904Z,27.40
2022-07-30T20:13:44.044Z,27.50
2022-07-30T20:16:16.287Z,27.50
2022-07-30T20:18:46.033Z,27.40
2022-07-30T20:21:15.998Z,27.30
2022-07-30T20:27:37.208Z,27.40
2022-07-30T20:29:58.345Z,27.40
2022-07-30T20:32:25.846Z,27.20
2022-07-30T20:34:53.299Z,27.10
2022-07-30T20:37:22.545Z,26.90
2022-07-30T20:39:50.387Z,26.90
2022-07-30T20:42:18.663Z,27.00
2022-07-30T20:44:50.723Z,27.10
2022-07-30T20:47:28.226Z,27.10
2022-07-30T20:50:10.196Z,27.10
2022-07-30T20:52:40.226Z,27.20
2022-07-30T20:55:09.739Z,27.20
2022-07-30T20:57:55.894Z,27.30
2022-07-30T21:00:26.751Z,27.40
2022-07-30T21:02:53.995Z,27.50
2022-07-30T21:05:21.672Z,27.50
2022-07-30T21:07:53.009Z,27.60
2022-07-30T21:10:23.484Z,27.70
2022-07-30T21:12:57.150Z,27.80
2022-07-30T21:15:36.102Z,27.80
2022-07-30T21:18:03.726Z,27.60
2022-07-30T21:20:31.825Z,27.50
2022-07-30T21:23:11.940Z,27.50
2022-07-30T21:26:01.307Z,27.60
2022-07-30T21:28:28.482Z,27.70
2022-07-30T21:30:57.317Z,27.70
2022-07-30T21:33:30.961Z,27.70
2022-07-30T21:35:59.541Z,27.70
2022-07-30T21:38:27.664Z,27.70
2022-07-30T21:40:56.013Z,27.70
2022-07-30T21:43:30.040Z,27.70
2022-07-30T21:45:58.730Z,27.60
2022-07-30T21:48:29.894Z,27.50
2022-07-30T21:50:57.502Z,27.50
2022-07-30T21:53:29.398Z,27.30
2022-07-30T21:56:12.453Z,27.30
2022-07-30T21:58:39.846Z,27.20
2022-07-30T22:01:17.412Z,27.20
2022-07-30T22:04:03.026Z,27.10
2022-07-30T22:06:40.089Z,27.20
2022-07-30T22:09:19.459Z,27.10
2022-07-30T22:11:57.169Z,27.00
2022-07-30T22:14:29.478Z,27.00
2022-07-30T22:16:57.068Z,26.90
2022-07-30T22:19:25.997Z,26.90
2022-07-30T22:21:53.771Z,26.90
2022-07-30T22:24:28.992Z,26.90
2022-07-30T22:29:49.165Z,26.80
2022-07-30T22:32:16.880Z,26.80
2022-07-30T22:34:44.878Z,26.80
2022-07-30T22:37:12.884Z,26.80
2022-07-30T22:39:50.702Z,26.70
2022-07-30T22:42:24.317Z,26.70
2022-07-30T22:44:54.875Z,26.70
2022-07-30T22:47:51.229Z,26.70
2022-07-30T22:50:11.778Z,26.70
2022-07-30T22:52:49.083Z,26.70
2022-07-30T22:55:27.348Z,26.60
2022-07-30T22:57:54.658Z,26.60
2022-07-30T23:00:27.165Z,26.60
2022-07-30T23:02:57.273Z,26.50
2022-07-30T23:05:24.830Z,26.50
2022-07-30T23:07:52.284Z,26.50
2022-07-30T23:10:20.349Z,26.50
2022-07-30T23:12:28.821Z,26.80
2022-07-30T23:12:52.864Z,26.40
2022-07-30T23:15:21.120Z,26.40
2022-07-30T23:17:53.043Z,26.30
2022-07-30T23:20:21.574Z,26.30
2022-07-30T23:22:49.557Z,26.30
2022-07-30T23:25:20.597Z,26.30
2022-07-30T23:27:47.929Z,26.30
2022-07-30T23:30:15.675Z,26.30
2022-07-30T23:32:44.381Z,26.30
2022-07-30T23:35:11.669Z,26.30
2022-07-30T23:37:48.976Z,26.30
2022-07-30T23:40:19.767Z,26.30
2022-07-30T23:42:51.123Z,26.20
2022-07-30T23:45:43.329Z,26.20
2022-07-30T23:48:10.713Z,26.10
2022-07-30T23:50:38.331Z,26.00
2022-07-30T23:53:05.685Z,25.90
2022-07-30T23:55:33.155Z,25.80
2022-07-30T23:58:00.577Z,25.80
